createdAt,value
2018-09-17T00:01:26.195Z,6.90
2018-09-17T00:03:38.395Z,7.10
2018-09-17T00:05:50.615Z,8.07
2018-09-17T00:08:02.917Z,7.80
2018-09-17T00:10:15.099Z,7.77
2018-09-17T00:12:27.413Z,8.50
2018-09-17T00:14:39.742Z,8.07
2018-09-17T00:16:51.962Z,7.70
2018-09-17T00:19:04.253Z,7.67
2018-09-17T00:21:16.474Z,8.07
2018-09-17T00:23:28.696Z,7.70
2018-09-17T00:25:40.861Z,8.37
2018-09-17T00:27:53.185Z,7.73
2018-09-17T00:30:05.451Z,7.53
2018-09-17T00:32:17.710Z,8.40
2018-09-17T00:34:29.883Z,7.73
2018-09-17T00:36:42.075Z,8.13
2018-09-17T00:38:54.290Z,8.47
2018-09-17T00:41:06.499Z,7.63
2018-09-17T00:43:18.697Z,8.30
2018-09-17T00:45:30.876Z,8.80
2018-09-17T00:47:43.108Z,8.20
2018-09-17T00:49:55.322Z,7.53
2018-09-17T00:52:07.534Z,8.60
2018-09-17T00:54:20.223Z,7.63
2018-09-17T00:56:32.451Z,8.07
2018-09-17T00:58:44.677Z,8.23
2018-09-17T01:00:56.922Z,8.13
2018-09-17T01:03:09.118Z,8.37
2018-09-17T01:05:21.355Z,8.00
2018-09-17T01:07:33.600Z,8.63
2018-09-17T01:09:45.842Z,7.83
2018-09-17T01:11:58.056Z,8.47
2018-09-17T01:14:10.268Z,8.57
2018-09-17T01:16:22.434Z,8.47
2018-09-17T01:18:34.694Z,8.47
2018-09-17T01:20:46.937Z,7.83
2018-09-17T01:22:59.146Z,8.03
2018-09-17T01:25:11.335Z,7.93
2018-09-17T01:27:23.527Z,8.87
2018-09-17T01:29:35.732Z,8.73
2018-09-17T01:31:47.925Z,9.00
2018-09-17T01:34:00.147Z,8.57
2018-09-17T01:36:12.352Z,8.90
2018-09-17T01:38:24.570Z,8.60
2018-09-17T01:40:36.779Z,7.90
2018-09-17T01:42:48.951Z,8.13
2018-09-17T01:45:01.151Z,8.50
2018-09-17T01:47:13.358Z,8.10
2018-09-17T01:49:25.577Z,8.10
2018-09-17T01:51:37.767Z,8.40
2018-09-17T01:53:49.943Z,8.53
2018-09-17T01:56:02.172Z,8.33
2018-09-17T01:58:14.327Z,8.43
2018-09-17T02:00:26.579Z,8.93
2018-09-17T02:02:38.754Z,8.57
2018-09-17T02:04:50.978Z,8.07
2018-09-17T02:07:03.186Z,8.10
2018-09-17T02:09:15.380Z,9.03
2018-09-17T02:11:27.598Z,8.27
2018-09-17T02:13:39.834Z,8.27
2018-09-17T02:15:52.083Z,8.80
2018-09-17T02:18:04.298Z,8.23
2018-09-17T02:20:16.489Z,9.03
2018-09-17T02:22:28.682Z,8.80
2018-09-17T02:24:40.938Z,9.73
2018-09-17T02:26:53.146Z,9.43
2018-09-17T02:29:05.578Z,9.10
2018-09-17T02:31:17.903Z,9.07
2018-09-17T02:33:30.102Z,9.37
2018-09-17T02:35:42.334Z,9.20
2018-09-17T02:37:54.531Z,9.60
2018-09-17T02:40:11.330Z,9.40
2018-09-17T02:42:23.523Z,9.17
2018-09-17T02:44:36.070Z,8.90
2018-09-17T02:46:48.299Z,8.60
2018-09-17T02:49:00.485Z,8.23
2018-09-17T02:51:13.289Z,8.73
2018-09-17T02:53:25.524Z,8.40
2018-09-17T02:55:37.747Z,8.80
2018-09-17T02:57:50.040Z,8.13
2018-09-17T03:00:02.270Z,8.10
2018-09-17T03:02:15.612Z,8.27
2018-09-17T03:04:27.962Z,8.57
2018-09-17T03:06:40.160Z,8.63
2018-09-17T03:08:52.403Z,7.50
2018-09-17T03:11:04.639Z,8.97
2018-09-17T03:13:16.930Z,8.73
2018-09-17T03:15:40.668Z,8.23
2018-09-17T03:17:52.871Z,9.63
2018-09-17T03:20:05.125Z,8.83
2018-09-17T03:22:17.328Z,9.67
2018-09-17T03:24:29.611Z,8.50
2018-09-17T03:26:41.751Z,9.23
2018-09-17T03:28:53.978Z,8.93
2018-09-17T03:31:06.182Z,9.80
2018-09-17T03:33:18.394Z,8.27
2018-09-17T03:35:30.609Z,9.73
2018-09-17T03:37:42.804Z,9.07
2018-09-17T03:39:57.234Z,9.57
2018-09-17T03:42:09.414Z,9.33
2018-09-17T03:44:21.631Z,10.03
2018-09-17T03:46:33.927Z,9.50
2018-09-17T03:48:46.242Z,9.60
2018-09-17T03:50:59.010Z,9.63
2018-09-17T03:53:11.198Z,9.73
2018-09-17T03:55:23.414Z,9.63
2018-09-17T03:57:35.655Z,10.23
2018-09-17T03:59:47.887Z,10.13
2018-09-17T04:02:00.091Z,9.90
2018-09-17T04:04:12.342Z,9.97
2018-09-17T04:06:24.551Z,9.27
2018-09-17T04:08:36.765Z,9.33
2018-09-17T04:10:48.965Z,8.80
2018-09-17T04:13:01.186Z,8.70
2018-09-17T04:15:13.383Z,8.60
2018-09-17T04:17:25.543Z,8.90
2018-09-17T04:19:37.835Z,9.90
2018-09-17T04:21:50.029Z,9.90
2018-09-17T04:24:02.245Z,9.43
2018-09-17T04:26:14.477Z,9.40
2018-09-17T04:28:26.690Z,9.73
2018-09-17T04:30:38.943Z,10.33
2018-09-17T04:32:51.671Z,9.60
2018-09-17T04:35:05.148Z,9.63
2018-09-17T04:37:17.333Z,9.63
2018-09-17T04:39:29.655Z,9.63
2018-09-17T04:41:41.983Z,9.80
2018-09-17T04:43:54.175Z,9.53
2018-09-17T04:46:06.442Z,9.03
2018-09-17T04:48:18.658Z,9.77
2018-09-17T04:50:30.850Z,8.97
2018-09-17T04:52:43.056Z,9.20
2018-09-17T04:54:55.239Z,10.07
2018-09-17T04:57:07.466Z,9.93
2018-09-17T04:59:19.658Z,10.53
2018-09-17T05:01:31.891Z,10.63
2018-09-17T05:03:44.102Z,10.93
2018-09-17T05:05:56.299Z,10.67
2018-09-17T05:08:08.507Z,10.13
2018-09-17T05:10:20.825Z,10.30
2018-09-17T05:12:33.042Z,10.10
2018-09-17T05:14:45.251Z,10.17
2018-09-17T05:16:57.499Z,10.10
2018-09-17T05:19:09.686Z,10.50
2018-09-17T05:21:21.885Z,9.87
2018-09-17T05:23:34.098Z,10.80
2018-09-17T05:25:46.290Z,10.67
2018-09-17T05:27:58.535Z,11.17
2018-09-17T05:30:10.736Z,10.83
2018-09-17T05:32:23.015Z,11.43
2018-09-17T05:34:35.187Z,11.13
2018-09-17T05:36:47.458Z,9.00
2018-09-17T05:38:59.693Z,11.10
2018-09-17T05:41:13.268Z,11.77
2018-09-17T05:43:25.488Z,10.20
2018-09-17T05:45:37.690Z,7.63
2018-09-17T05:47:49.986Z,10.57
2018-09-17T05:50:02.215Z,9.07
2018-09-17T05:52:14.403Z,11.13
2018-09-17T05:54:26.634Z,10.60
2018-09-17T05:56:38.921Z,9.30
2018-09-17T05:58:51.202Z,9.43
2018-09-17T06:01:03.384Z,10.60
2018-09-17T06:03:15.648Z,11.80
2018-09-17T06:05:27.930Z,14.43
2018-09-17T06:07:40.130Z,13.30
2018-09-17T06:09:52.387Z,11.70
2018-09-17T06:12:04.592Z,12.10
2018-09-17T06:14:16.832Z,11.77
2018-09-17T06:16:29.124Z,11.17
2018-09-17T06:18:41.432Z,11.07
2018-09-17T06:20:53.625Z,11.97
2018-09-17T06:23:05.825Z,11.60
2018-09-17T06:25:18.041Z,11.20
2018-09-17T06:27:30.222Z,11.83
2018-09-17T06:29:42.503Z,11.57
2018-09-17T06:31:54.682Z,12.23
2018-09-17T06:34:07.223Z,11.13
2018-09-17T06:36:19.448Z,11.80
2018-09-17T06:38:31.608Z,11.63
2018-09-17T06:40:43.811Z,11.00
2018-09-17T06:42:56.083Z,10.03
2018-09-17T06:45:08.320Z,10.90
2018-09-17T06:47:20.614Z,10.73
2018-09-17T06:49:32.842Z,10.33
2018-09-17T06:51:45.020Z,8.70
2018-09-17T06:53:57.225Z,11.00
2018-09-17T06:56:09.428Z,10.17
2018-09-17T06:58:21.587Z,10.17
2018-09-17T07:00:33.835Z,11.17
2018-09-17T07:02:46.040Z,11.03
2018-09-17T07:04:58.255Z,11.03
2018-09-17T07:07:10.453Z,12.47
2018-09-17T07:09:22.642Z,12.50
2018-09-17T07:11:34.831Z,11.07
2018-09-17T07:13:47.052Z,10.77
2018-09-17T07:15:59.263Z,10.87
2018-09-17T07:18:11.472Z,10.13
2018-09-17T07:20:23.660Z,10.03
2018-09-17T07:22:35.949Z,11.03
2018-09-17T07:24:48.160Z,10.13
2018-09-17T07:27:00.391Z,10.37
2018-09-17T07:29:12.637Z,10.10
2018-09-17T07:31:24.863Z,10.20
2018-09-17T07:33:37.050Z,10.03
2018-09-17T07:35:49.267Z,9.87
2018-09-17T07:38:01.476Z,9.47
2018-09-17T07:40:13.715Z,9.50
2018-09-17T07:42:25.950Z,10.00
2018-09-17T07:44:38.158Z,11.03
2018-09-17T07:46:50.446Z,10.23
2018-09-17T07:49:02.794Z,9.87
2018-09-17T07:51:14.999Z,10.20
2018-09-17T07:53:27.219Z,9.03
2018-09-17T07:55:39.448Z,9.47
2018-09-17T07:57:51.710Z,9.93
2018-09-17T08:00:04.111Z,9.67
2018-09-17T08:02:16.312Z,8.73
2018-09-17T08:04:28.776Z,9.17
2018-09-17T08:06:41.018Z,10.30
2018-09-17T08:08:53.223Z,9.10
2018-09-17T08:11:05.495Z,10.00
2018-09-17T08:13:17.735Z,9.73
2018-09-17T08:15:29.919Z,9.13
2018-09-17T08:17:42.128Z,9.30
2018-09-17T08:19:54.390Z,8.83
2018-09-17T08:22:06.631Z,8.17
2018-09-17T08:24:18.841Z,8.17
2018-09-17T08:26:31.071Z,9.57
2018-09-17T08:28:43.279Z,9.37
2018-09-17T08:30:55.487Z,8.40
2018-09-17T08:33:07.755Z,9.33
2018-09-17T08:35:19.958Z,8.77
2018-09-17T08:37:32.223Z,8.23
2018-09-17T08:39:44.450Z,8.40
2018-09-17T08:41:56.606Z,8.13
2018-09-17T08:44:09.731Z,8.13
2018-09-17T08:46:21.938Z,8.43
2018-09-17T08:48:34.166Z,7.87
2018-09-17T08:50:46.410Z,7.83
2018-09-17T08:52:58.633Z,7.73
2018-09-17T08:55:15.364Z,9.47
2018-09-17T08:57:30.558Z,8.73
2018-09-17T08:59:50.340Z,8.30
2018-09-17T09:02:08.262Z,7.23
2018-09-17T09:04:31.063Z,8.70
2018-09-17T09:06:49.049Z,8.93
2018-09-17T09:09:01.859Z,7.67
2018-09-17T09:11:21.485Z,7.20
2018-09-17T09:13:34.221Z,7.03
2018-09-17T09:15:46.435Z,7.37
2018-09-17T09:17:58.657Z,7.47
2018-09-17T09:20:10.896Z,6.63
2018-09-17T09:22:23.159Z,7.00
2018-09-17T09:24:36.112Z,7.03
2018-09-17T09:26:48.330Z,6.87
2018-09-17T09:29:00.557Z,5.53
2018-09-17T09:31:12.780Z,6.90
2018-09-17T09:33:24.976Z,7.10
2018-09-17T09:35:37.220Z,6.40
2018-09-17T09:37:49.493Z,6.57
2018-09-17T09:40:01.730Z,6.40
2018-09-17T09:42:13.967Z,6.30
2018-09-17T09:44:26.175Z,6.63
2018-09-17T09:46:38.411Z,5.80
2018-09-17T09:48:50.578Z,6.40
2018-09-17T09:51:02.814Z,6.13
2018-09-17T09:53:15.036Z,5.43
2018-09-17T09:55:27.270Z,4.93
2018-09-17T09:57:39.481Z,4.97
2018-09-17T09:59:51.772Z,4.43
2018-09-17T10:02:09.663Z,4.20
2018-09-17T10:04:22.790Z,4.37
2018-09-17T10:06:35.035Z,4.57
2018-09-17T10:08:52.783Z,4.27
2018-09-17T10:11:10.648Z,4.10
2018-09-17T10:13:28.610Z,4.03
2018-09-17T10:15:46.617Z,4.20
2018-09-17T10:19:04.136Z,4.37
2018-09-17T10:21:16.336Z,4.10
2018-09-17T10:23:28.555Z,4.10
2018-09-17T10:25:40.718Z,3.70
2018-09-17T10:27:52.971Z,3.90
2018-09-17T10:30:05.511Z,4.10
2018-09-17T10:32:17.754Z,3.93
2018-09-17T10:34:29.941Z,3.40
2018-09-17T10:36:42.219Z,4.20
2018-09-17T10:38:54.446Z,4.33
2018-09-17T10:41:06.650Z,4.17
2018-09-17T10:43:18.880Z,4.20
2018-09-17T10:45:31.159Z,4.13
2018-09-17T10:47:43.482Z,4.23
2018-09-17T10:49:55.679Z,4.00
2018-09-17T10:52:07.900Z,4.33
2018-09-17T10:54:20.141Z,4.37
2018-09-17T10:56:32.327Z,3.57
2018-09-17T10:58:44.567Z,3.93
2018-09-17T11:00:56.751Z,3.87
2018-09-17T11:03:08.971Z,3.70
2018-09-17T11:05:21.181Z,3.13
2018-09-17T11:07:33.391Z,3.43
2018-09-17T11:09:45.623Z,3.10
2018-09-17T11:11:57.861Z,3.40
2018-09-17T11:14:10.088Z,2.90
2018-09-17T11:16:22.271Z,3.17
2018-09-17T11:18:34.483Z,2.77
2018-09-17T11:20:47.343Z,2.53
2018-09-17T11:22:59.508Z,2.57
2018-09-17T11:25:11.694Z,2.87
2018-09-17T11:27:23.887Z,3.17
2018-09-17T11:29:36.090Z,3.17
2018-09-17T11:31:48.277Z,3.13
2018-09-17T11:34:00.502Z,3.47
2018-09-17T11:36:12.696Z,3.50
2018-09-17T11:38:24.951Z,2.80
2018-09-17T11:40:37.243Z,2.83
2018-09-17T11:42:49.467Z,3.17
2018-09-17T11:45:01.734Z,2.83
2018-09-17T11:47:13.954Z,3.00
2018-09-17T11:49:26.235Z,3.30
2018-09-17T11:51:38.450Z,2.90
2018-09-17T11:53:50.713Z,3.47
2018-09-17T11:56:02.895Z,2.90
2018-09-17T11:58:15.096Z,3.07
2018-09-17T12:00:33.050Z,2.90
2018-09-17T12:02:50.955Z,3.20
2018-09-17T12:05:07.164Z,3.20
2018-09-17T12:07:25.045Z,3.50
2018-09-17T12:09:37.231Z,3.57
2018-09-17T12:11:49.459Z,3.00
2018-09-17T12:14:01.645Z,3.23
2018-09-17T12:16:13.881Z,3.00
2018-09-17T12:18:26.183Z,3.40
2018-09-17T12:20:38.595Z,2.70
2018-09-17T12:22:50.837Z,3.33
2018-09-17T12:25:03.093Z,3.10
2018-09-17T12:27:15.355Z,3.20
2018-09-17T12:29:27.532Z,3.20
2018-09-17T12:31:39.725Z,2.67
2018-09-17T12:33:52.033Z,2.60
2018-09-17T12:36:04.184Z,2.40
2018-09-17T12:38:16.438Z,2.93
2018-09-17T12:40:28.760Z,3.10
2018-09-17T12:42:41.027Z,2.73
2018-09-17T12:44:53.216Z,2.93
2018-09-17T12:47:05.456Z,3.10
2018-09-17T12:49:17.642Z,3.23
2018-09-17T12:51:29.843Z,3.10
2018-09-17T12:53:42.152Z,2.63
2018-09-17T12:55:54.343Z,2.87
2018-09-17T12:58:06.608Z,2.60
2018-09-17T13:00:18.971Z,2.83
2018-09-17T13:02:31.161Z,2.40
2018-09-17T13:04:43.376Z,2.70
2018-09-17T13:06:55.609Z,2.93
2018-09-17T13:09:08.967Z,3.20
2018-09-17T13:11:21.181Z,3.20
2018-09-17T13:13:33.483Z,3.23
2018-09-17T13:15:51.603Z,2.87
2018-09-17T13:18:03.780Z,2.97
2018-09-17T13:20:15.998Z,2.80
2018-09-17T13:22:28.203Z,3.50
2018-09-17T13:24:40.386Z,3.33
2018-09-17T13:26:52.683Z,3.20
2018-09-17T13:29:04.954Z,3.23
2018-09-17T13:31:17.170Z,3.00
2018-09-17T13:33:29.381Z,3.40
2018-09-17T13:35:41.659Z,3.20
2018-09-17T13:37:53.884Z,3.20
2018-09-17T13:40:06.178Z,2.50
2018-09-17T13:42:18.384Z,2.87
2018-09-17T13:44:30.676Z,3.10
2018-09-17T13:46:42.868Z,2.80
2018-09-17T13:48:55.112Z,3.13
2018-09-17T13:51:07.390Z,2.80
2018-09-17T13:53:19.655Z,3.00
2018-09-17T13:55:31.840Z,2.90
2018-09-17T13:57:44.949Z,2.77
2018-09-17T13:59:57.322Z,3.10
2018-09-17T14:02:09.891Z,2.70
2018-09-17T14:04:22.176Z,2.97
2018-09-17T14:06:34.344Z,2.57
2018-09-17T14:08:46.604Z,3.07
2018-09-17T14:10:58.802Z,2.87
2018-09-17T14:13:11.062Z,3.00
2018-09-17T14:15:23.301Z,2.97
2018-09-17T14:17:35.536Z,2.83
2018-09-17T14:19:47.830Z,2.77
2018-09-17T14:22:00.024Z,3.27
2018-09-17T14:24:12.306Z,3.20
2018-09-17T14:26:25.279Z,3.20
2018-09-17T14:28:37.501Z,2.80
2018-09-17T14:30:49.811Z,3.20
2018-09-17T14:33:07.788Z,3.40
2018-09-17T14:35:19.986Z,3.20
2018-09-17T14:37:32.141Z,3.47
2018-09-17T14:39:44.499Z,3.10
2018-09-17T14:41:56.722Z,2.73
2018-09-17T14:44:09.028Z,3.27
2018-09-17T14:46:21.357Z,2.63
2018-09-17T14:48:33.579Z,3.07
2018-09-17T14:50:45.801Z,3.40
2018-09-17T14:52:57.994Z,3.30
2018-09-17T14:55:10.229Z,2.90
2018-09-17T14:57:22.538Z,3.50
2018-09-17T14:59:34.743Z,3.33
2018-09-17T15:01:47.009Z,2.63
2018-09-17T15:03:59.244Z,3.20
2018-09-17T15:06:11.537Z,3.23
2018-09-17T15:08:23.907Z,3.17
2018-09-17T15:10:36.070Z,3.20
2018-09-17T15:12:48.291Z,3.40
2018-09-17T15:15:00.536Z,3.07
2018-09-17T15:17:12.762Z,3.10
2018-09-17T15:19:25.000Z,3.07
2018-09-17T15:21:37.280Z,2.77
2018-09-17T15:23:49.602Z,3.07
2018-09-17T15:26:01.853Z,3.00
2018-09-17T15:28:13.999Z,2.90
2018-09-17T15:30:26.220Z,3.17
2018-09-17T15:32:38.456Z,3.00
2018-09-17T15:34:50.689Z,3.03
2018-09-17T15:37:02.967Z,2.80
2018-09-17T15:39:15.314Z,3.00
2018-09-17T15:41:27.657Z,2.70
2018-09-17T15:43:39.699Z,2.80
2018-09-17T15:45:51.903Z,3.60
2018-09-17T15:48:04.171Z,2.87
2018-09-17T15:50:16.572Z,2.70
2018-09-17T15:52:28.816Z,2.90
2018-09-17T15:54:41.025Z,3.40
2018-09-17T15:56:53.227Z,2.80
2018-09-17T15:59:05.514Z,3.00
2018-09-17T16:01:17.711Z,2.90
2018-09-17T16:03:29.971Z,3.10
2018-09-17T16:05:42.214Z,2.53
2018-09-17T16:07:54.453Z,2.80
2018-09-17T16:10:07.213Z,2.97
2018-09-17T16:12:19.454Z,3.07
2018-09-17T16:14:31.667Z,2.70
2018-09-17T16:16:43.896Z,2.60
2018-09-17T16:18:56.203Z,2.40
2018-09-17T16:21:08.442Z,2.33
2018-09-17T16:23:20.647Z,3.00
2018-09-17T16:25:32.964Z,3.00
2018-09-17T16:27:45.218Z,2.77
2018-09-17T16:29:57.433Z,2.63
2018-09-17T16:32:09.744Z,2.37
2018-09-17T16:34:21.989Z,3.00
2018-09-17T16:36:34.268Z,2.70
2018-09-17T16:38:47.367Z,2.97
2018-09-17T16:40:59.633Z,2.93
2018-09-17T16:43:11.806Z,2.70
2018-09-17T16:45:24.042Z,2.87
2018-09-17T16:47:36.250Z,2.40
2018-09-17T16:49:48.481Z,2.60
2018-09-17T16:52:00.744Z,2.70
2018-09-17T16:54:12.955Z,2.67
2018-09-17T16:56:25.240Z,2.67
2018-09-17T16:58:37.483Z,2.00
2018-09-17T17:00:49.738Z,2.50
2018-09-17T17:03:02.039Z,3.00
2018-09-17T17:05:14.338Z,3.70
2018-09-17T17:07:26.563Z,3.30
2018-09-17T17:09:38.756Z,3.13
2018-09-17T17:11:51.037Z,3.30
2018-09-17T17:14:03.242Z,3.63
2018-09-17T17:16:15.546Z,3.70
2018-09-17T17:18:27.775Z,3.50
2018-09-17T17:20:40.023Z,3.87
2018-09-17T17:22:52.368Z,3.40
2018-09-17T17:25:04.670Z,3.97
2018-09-17T17:27:16.978Z,3.87
2018-09-17T17:29:29.263Z,3.53
2018-09-17T17:31:41.540Z,5.10
2018-09-17T17:33:53.902Z,5.27
2018-09-17T17:36:06.125Z,4.13
2018-09-17T17:38:18.427Z,4.47
2018-09-17T17:40:30.845Z,4.83
2018-09-17T17:42:42.967Z,4.87
2018-09-17T17:44:55.238Z,4.73
2018-09-17T17:47:07.538Z,4.00
2018-09-17T17:49:19.804Z,3.73
2018-09-17T17:51:32.056Z,3.93
2018-09-17T17:53:44.280Z,3.57
2018-09-17T17:55:56.565Z,3.90
2018-09-17T17:58:08.885Z,4.50
2018-09-17T18:00:21.064Z,3.93
2018-09-17T18:02:33.296Z,3.97
2018-09-17T18:04:45.565Z,3.60
2018-09-17T18:06:57.774Z,3.97
2018-09-17T18:09:10.966Z,3.50
2018-09-17T18:11:23.187Z,4.07
2018-09-17T18:13:35.563Z,4.50
2018-09-17T18:15:47.827Z,3.50
2018-09-17T18:18:00.085Z,3.90
2018-09-17T18:20:12.385Z,4.83
2018-09-17T18:22:24.649Z,5.70
2018-09-17T18:24:36.884Z,5.10
2018-09-17T18:26:49.226Z,3.83
2018-09-17T18:29:01.461Z,4.33
2018-09-17T18:31:13.696Z,3.80
2018-09-17T18:33:26.069Z,3.60
2018-09-17T18:35:38.315Z,3.23
2018-09-17T18:37:50.615Z,3.40
2018-09-17T18:40:02.906Z,3.53
2018-09-17T18:42:15.122Z,3.70
2018-09-17T18:44:27.384Z,3.53
2018-09-17T18:46:39.665Z,3.27
2018-09-17T18:48:51.879Z,3.83
2018-09-17T18:51:04.215Z,3.63
2018-09-17T18:53:16.419Z,3.53
2018-09-17T18:55:28.644Z,3.90
2018-09-17T18:57:40.859Z,3.70
2018-09-17T18:59:53.189Z,3.60
2018-09-17T19:02:05.462Z,3.80
2018-09-17T19:04:17.726Z,3.00
2018-09-17T19:06:29.985Z,3.00
2018-09-17T19:08:42.338Z,2.93
2018-09-17T19:10:54.575Z,3.30
2018-09-17T19:13:06.822Z,3.10
2018-09-17T19:15:24.628Z,3.27
2018-09-17T19:17:41.144Z,3.10
2018-09-17T19:19:53.729Z,2.57
2018-09-17T19:22:11.917Z,3.30
2018-09-17T19:24:24.010Z,3.10
2018-09-17T19:26:36.289Z,2.93
2018-09-17T19:28:54.240Z,2.80
2018-09-17T19:31:06.507Z,2.90
2018-09-17T19:33:18.759Z,3.50
2018-09-17T19:35:31.018Z,3.33
2018-09-17T19:37:48.919Z,3.40
2018-09-17T19:40:06.745Z,3.67
2018-09-17T19:42:19.025Z,3.53
2018-09-17T19:44:31.220Z,3.67
2018-09-17T19:46:43.416Z,3.50
2018-09-17T19:48:55.678Z,3.90
2018-09-17T19:51:13.718Z,3.63
2018-09-17T19:53:26.183Z,3.30
2018-09-17T19:55:38.442Z,3.73
2018-09-17T19:57:56.352Z,3.60
2018-09-17T20:00:08.638Z,3.97
2018-09-17T20:02:20.891Z,3.50
2018-09-17T20:05:39.256Z,3.63
2018-09-17T20:07:51.486Z,3.13
2018-09-17T20:10:03.926Z,3.27
2018-09-17T20:12:16.131Z,3.20
2018-09-17T20:14:28.370Z,3.07
2018-09-17T20:16:40.547Z,3.37
2018-09-17T20:18:52.775Z,3.20
2018-09-17T20:21:05.235Z,3.63
2018-09-17T20:23:17.554Z,3.20
2018-09-17T20:25:29.744Z,3.30
2018-09-17T20:27:41.987Z,3.23
2018-09-17T20:29:54.258Z,3.43
2018-09-17T20:32:06.479Z,3.60
2018-09-17T20:34:18.781Z,3.43
2018-09-17T20:36:31.011Z,3.57
2018-09-17T20:38:43.269Z,3.20
2018-09-17T20:40:55.571Z,3.10
2018-09-17T20:43:07.753Z,3.57
2018-09-17T20:45:20.018Z,3.33
2018-09-17T20:47:32.260Z,4.40
2018-09-17T20:49:44.556Z,6.17
2018-09-17T20:51:56.741Z,3.67
2018-09-17T20:54:09.014Z,3.73
2018-09-17T20:56:21.260Z,3.40
2018-09-17T20:58:33.471Z,2.77
2018-09-17T21:00:45.799Z,3.50
2018-09-17T21:02:57.943Z,3.17
2018-09-17T21:05:10.204Z,2.83
2018-09-17T21:07:22.495Z,3.10
2018-09-17T21:09:35.712Z,3.13
2018-09-17T21:11:47.964Z,2.70
2018-09-17T21:14:00.174Z,3.17
2018-09-17T21:16:12.568Z,2.93
2018-09-17T21:18:24.675Z,3.20
2018-09-17T21:20:36.887Z,3.27
2018-09-17T21:22:49.092Z,2.83
2018-09-17T21:25:01.424Z,3.00
2018-09-17T21:27:13.635Z,3.23
2018-09-17T21:29:25.800Z,2.87
2018-09-17T21:31:38.021Z,3.07
2018-09-17T21:33:50.547Z,2.90
2018-09-17T21:36:02.736Z,2.90
2018-09-17T21:38:14.955Z,3.20
2018-09-17T21:40:27.232Z,3.30
2018-09-17T21:42:39.461Z,3.10
2018-09-17T21:44:51.723Z,3.37
2018-09-17T21:47:04.003Z,3.00
2018-09-17T21:49:16.232Z,3.60
2018-09-17T21:51:28.454Z,3.50
2018-09-17T21:53:40.716Z,3.10
2018-09-17T21:55:52.942Z,3.70
2018-09-17T21:58:05.228Z,3.77
2018-09-17T22:00:17.628Z,3.10
2018-09-17T22:02:29.870Z,3.40
2018-09-17T22:04:42.091Z,3.50
2018-09-17T22:06:54.304Z,3.20
2018-09-17T22:09:07.165Z,3.30
2018-09-17T22:11:19.375Z,3.20
2018-09-17T22:13:31.609Z,3.60
2018-09-17T22:15:43.858Z,3.27
2018-09-17T22:17:56.082Z,3.27
2018-09-17T22:20:08.326Z,3.67
2018-09-17T22:22:20.666Z,3.47
2018-09-17T22:24:32.900Z,3.10
2018-09-17T22:26:45.159Z,3.90
2018-09-17T22:28:57.468Z,3.83
2018-09-17T22:31:09.638Z,3.20
2018-09-17T22:33:21.870Z,3.40
2018-09-17T22:35:34.067Z,3.50
2018-09-17T22:37:46.278Z,3.77
2018-09-17T22:39:58.545Z,2.93
2018-09-17T22:42:10.805Z,3.37
2018-09-17T22:44:22.983Z,2.93
2018-09-17T22:46:35.218Z,3.17
2018-09-17T22:48:47.379Z,3.27
2018-09-17T22:50:59.583Z,3.43
2018-09-17T22:53:11.810Z,2.50
2018-09-17T22:55:24.023Z,3.20
2018-09-17T22:57:36.211Z,3.23
2018-09-17T22:59:48.477Z,3.30
2018-09-17T23:02:00.701Z,2.77
2018-09-17T23:04:12.933Z,3.10
2018-09-17T23:06:25.149Z,3.23
2018-09-17T23:08:37.366Z,3.10
2018-09-17T23:10:49.599Z,2.93
2018-09-17T23:13:01.809Z,3.03
2018-09-17T23:15:14.093Z,3.03
2018-09-17T23:17:26.331Z,2.80
2018-09-17T23:19:38.533Z,3.07
2018-09-17T23:21:51.001Z,2.97
2018-09-17T23:24:03.255Z,3.13
2018-09-17T23:26:15.470Z,3.30
2018-09-17T23:28:27.758Z,3.00
2018-09-17T23:30:39.955Z,3.03
2018-09-17T23:32:52.165Z,3.57
2018-09-17T23:35:04.370Z,3.07
2018-09-17T23:37:16.833Z,3.20
2018-09-17T23:39:29.050Z,3.10
2018-09-17T23:41:41.264Z,2.80
2018-09-17T23:43:53.514Z,2.80
2018-09-17T23:46:05.791Z,3.33
2018-09-17T23:48:17.950Z,3.00
2018-09-17T23:50:30.142Z,3.10
2018-09-17T23:52:42.378Z,3.33
2018-09-17T23:54:54.643Z,3.57
2018-09-17T23:57:06.850Z,2.90
2018-09-17T23:59:19.068Z,3.00
